Time;durP1;ratioP1;P1;durP2;ratioP2;P2;SDS_P1;SDS_P2;PMS_P1;PMS_P2;Temp;Humidity;BMP_temperature;BMP_pressure;BME280_temperature;BME280_humidity;BME280_pressure;Samples;Min_cycle;Max_cycle;Signal;HPM_P1;HPM_P2
2022/03/17 00:00:15;;;;;;;19.27;10.13;;;;;;;23.79;33.43;101864.06;5130928;27;20110;-73
2022/03/17 00:02:41;;;;;;;16.33;9.50;;;;;;;22.88;35.19;101882.53;5112438;28;20102;-73
2022/03/17 00:05:08;;;;;;;19.97;9.90;;;;;;;21.88;36.78;101867.31;5111807;28;20492;-73
2022/03/17 00:07:36;;;;;;;20.23;10.03;;;;;;;21.43;37.65;101883.25;5130313;28;20037;-73
2022/03/17 00:10:04;;;;;;;19.63;9.57;;;;;;;22.27;36.27;101880.75;5113117;28;20023;-73
2022/03/17 00:12:29;;;;;;;23.50;10.03;;;;;;;22.90;34.94;101886.94;5112948;28;20030;-73
2022/03/17 00:14:55;;;;;;;21.17;10.10;;;;;;;21.75;37.50;101889.09;5112307;28;20266;-73
2022/03/17 00:17:20;;;;;;;18.97;10.47;;;;;;;21.26;38.59;101896.31;5111604;28;20088;-73
2022/03/17 00:19:45;;;;;;;20.23;10.53;;;;;;;21.52;37.47;101888.22;5113050;28;20019;-72
2022/03/17 00:22:15;;;;;;;22.27;11.30;;;;;;;21.06;38.81;101889.97;5111867;27;20038;-73
2022/03/17 00:24:41;;;;;;;21.87;10.40;;;;;;;21.73;37.61;101890.94;5112310;28;20075;-72
2022/03/17 00:27:08;;;;;;;22.67;11.10;;;;;;;21.07;38.60;101891.69;5112074;28;20051;-73
2022/03/17 00:29:35;;;;;;;24.50;10.60;;;;;;;21.69;37.95;101873.38;5111907;28;20027;-72
2022/03/17 00:32:00;;;;;;;18.97;10.77;;;;;;;21.82;37.44;101879.94;5130747;28;20469;-73
2022/03/17 00:34:26;;;;;;;19.97;10.47;;;;;;;21.46;38.36;101876.91;5112424;28;20034;-73
2022/03/17 00:36:51;;;;;;;22.20;11.37;;;;;;;21.64;38.01;101892.19;5111946;28;20015;-73
2022/03/17 00:39:17;;;;;;;19.43;10.70;;;;;;;22.10;37.40;101884.09;5112673;28;20026;-73
2022/03/17 00:41:43;;;;;;;20.50;11.50;;;;;;;21.11;39.43;101888.00;5112765;28;20128;-73
2022/03/17 00:44:09;;;;;;;22.43;11.40;;;;;;;21.98;37.36;101879.28;5111780;28;20402;-73
2022/03/17 00:46:36;;;;;;;21.77;11.47;;;;;;;22.17;36.90;101885.59;5112698;28;20019;-73
2022/03/17 00:49:01;;;;;;;22.47;11.17;;;;;;;21.51;37.97;101891.78;5112401;28;20023;-73
2022/03/17 00:51:27;;;;;;;21.60;11.13;;;;;;;21.25;39.00;101884.81;5114068;27;20031;-72
2022/03/17 00:53:52;;;;;;;24.10;11.83;;;;;;;21.49;38.46;101893.63;5115673;27;20474;-73
2022/03/17 00:56:18;;;;;;;28.67;12.10;;;;;;;21.93;37.75;101897.28;5116026;27;20117;-72
2022/03/17 00:58:45;;;;;;;25.33;12.90;;;;;;;22.49;36.84;101891.38;5115443;27;20033;-73
2022/03/17 01:01:12;;;;;;;23.07;12.10;;;;;;;21.84;37.95;101896.72;5114823;27;20561;-73
2022/03/17 01:03:37;;;;;;;28.27;13.33;;;;;;;22.20;37.44;101896.13;5115978;27;20474;-72
2022/03/17 01:06:03;;;;;;;23.90;12.67;;;;;;;21.88;38.42;101893.94;5099141;27;20062;-73
2022/03/17 01:08:29;;;;;;;24.27;11.60;;;;;;;22.21;37.91;101896.97;5134382;27;20045;-73
2022/03/17 01:10:54;;;;;;;22.53;12.37;;;;;;;22.24;38.27;101895.97;5115071;27;20553;-73
2022/03/17 01:13:20;;;;;;;23.93;12.80;;;;;;;22.97;36.72;101901.69;5116318;27;20030;-73
2022/03/17 01:15:45;;;;;;;23.73;12.70;;;;;;;21.27;40.73;101908.69;5116033;27;20026;-74
2022/03/17 01:18:10;;;;;;;28.23;13.67;;;;;;;21.38;40.77;101911.81;5114861;27;20079;-73
2022/03/17 01:20:36;;;;;;;28.30;13.23;;;;;;;21.76;40.04;101900.59;5115869;27;20478;-74
2022/03/17 01:23:01;;;;;;;33.80;13.93;;;;;;;21.15;41.73;101912.69;5134580;27;20094;-74
2022/03/17 01:25:27;;;;;;;29.93;14.93;;;;;;;21.67;40.24;101905.38;5114597;27;20059;-74
2022/03/17 01:27:52;;;;;;;29.43;14.53;;;;;;;21.13;41.68;101912.72;5094895;28;20106;-74
2022/03/17 01:30:18;;;;;;;31.77;15.17;;;;;;;21.06;41.92;101911.25;5104891;27;20496;-74
2022/03/17 01:32:43;;;;;;;34.80;15.93;;;;;;;21.96;39.98;101911.31;5115649;27;20027;-73
2022/03/17 01:35:09;;;;;;;29.63;16.27;;;;;;;20.86;42.21;101919.06;5115454;27;20042;-74
2022/03/17 01:37:35;;;;;;;31.60;14.90;;;;;;;22.12;40.13;101924.88;5115837;27;20034;-74
2022/03/17 01:40:00;;;;;;;34.80;15.97;;;;;;;21.58;40.90;101927.00;5133267;27;20023;-75
2022/03/17 01:42:26;;;;;;;33.50;16.97;;;;;;;21.41;41.94;101929.44;5114833;27;20034;-74
2022/03/17 01:44:52;;;;;;;34.70;16.80;;;;;;;21.37;41.93;101931.34;5115333;27;20023;-74
2022/03/17 01:47:29;;;;;;;34.07;16.70;;;;;;;21.27;42.55;101935.28;5114131;27;20023;-74
2022/03/17 01:50:04;;;;;;;36.50;17.33;;;;;;;20.52;44.06;101937.00;5115170;27;20159;-74
2022/03/17 01:52:30;;;;;;;32.73;16.80;;;;;;;19.75;46.62;101940.34;5115824;27;20128;-74
2022/03/17 01:54:56;;;;;;;33.37;16.83;;;;;;;20.21;45.94;101943.38;5114891;27;20050;-74
2022/03/17 01:57:22;;;;;;;30.90;15.93;;;;;;;18.75;49.73;101967.94;5114739;27;20019;-75
2022/03/17 01:59:49;;;;;;;38.90;17.30;;;;;;;19.46;48.22;101965.13;5115149;27;20106;-74
2022/03/17 02:02:14;;;;;;;26.60;12.90;;;;;;;19.57;47.92;101978.06;5113537;27;20062;-74
2022/03/17 02:04:41;;;;;;;24.10;13.37;;;;;;;19.46;48.00;101979.22;5115406;27;20023;-74
2022/03/17 02:07:08;;;;;;;18.13;10.93;;;;;;;18.61;50.29;101980.63;5132645;27;20109;-74
2022/03/17 02:09:35;;;;;;;18.50;9.77;;;;;;;18.08;51.63;101981.03;5114613;27;20026;-74
2022/03/17 02:14:58;;;;;;;20.60;9.17;;;;;;;17.85;52.81;102005.34;5133423;27;20571;-74
2022/03/17 02:17:25;;;;;;;15.43;7.63;;;;;;;16.96;54.66;102019.41;5114480;27;20022;-74
2022/03/17 02:19:51;;;;;;;8.03;4.80;;;;;;;15.72;59.30;102034.41;5092516;28;20035;-73
2022/03/17 02:22:20;;;;;;;9.43;4.27;;;;;;;16.24;57.90;102039.91;5113763;27;20023;-73
2022/03/17 02:27:38;;;;;;;5.43;3.07;;;;;;;16.50;52.95;102044.81;5133401;27;20050;-74
2022/03/17 02:30:05;;;;;;;7.78;3.45;;;;;;;16.50;51.73;102054.47;5114227;27;20121;-73
2022/03/17 02:32:31;;;;;;;8.57;3.13;;;;;;;16.96;49.96;102056.41;5112601;27;20058;-73
2022/03/17 02:34:56;;;;;;;9.50;4.27;;;;;;;17.30;48.92;102082.22;5097816;27;20110;-73
2022/03/17 02:37:24;;;;;;;7.03;3.40;;;;;;;17.43;48.55;102073.16;5113775;27;20470;-74
2022/03/17 02:39:49;;;;;;;10.77;4.40;;;;;;;18.02;46.94;102072.00;5114475;27;20035;-74
2022/03/17 02:42:15;;;;;;;7.63;4.17;;;;;;;17.30;49.27;102071.66;5112931;27;20031;-73
2022/03/17 02:44:40;;;;;;;8.07;4.07;;;;;;;18.23;46.16;102075.97;5104571;28;20126;-73
2022/03/17 02:47:06;;;;;;;7.80;3.47;;;;;;;16.71;49.49;102085.81;5103669;27;20027;-74
2022/03/17 02:49:33;;;;;;;9.63;4.97;;;;;;;17.10;49.26;102090.50;5131987;27;20048;-74
2022/03/17 02:51:58;;;;;;;9.00;4.10;;;;;;;18.30;44.89;102090.78;5132367;27;20019;-74
2022/03/17 02:54:23;;;;;;;9.07;4.67;;;;;;;18.89;45.07;102091.19;5114268;27;20077;-74
2022/03/17 02:56:48;;;;;;;10.60;4.50;;;;;;;18.15;46.14;102107.00;5113844;27;20031;-74
2022/03/17 02:59:14;;;;;;;12.80;5.20;;;;;;;17.19;48.58;102107.97;5113650;27;20027;-74
2022/03/17 03:01:40;;;;;;;13.60;6.17;;;;;;;18.31;46.00;102104.88;5132772;27;20024;-74
2022/03/17 03:04:05;;;;;;;11.67;5.57;;;;;;;17.34;46.88;102120.91;5113321;27;21255;-74
2022/03/17 03:06:30;;;;;;;10.43;5.47;;;;;;;16.54;48.74;102132.69;5114331;27;20015;-74
2022/03/17 03:08:56;;;;;;;17.30;7.93;;;;;;;16.60;50.29;102138.75;5113349;27;20103;-73
2022/03/17 03:11:21;;;;;;;14.40;8.00;;;;;;;17.44;47.83;102143.59;5098731;28;20402;-72
2022/03/17 03:13:46;;;;;;;18.03;8.30;;;;;;;16.54;51.67;102159.09;5111952;28;20019;-73
2022/03/17 03:16:13;;;;;;;14.43;7.60;;;;;;;17.63;46.63;102148.56;5112708;27;20027;-72
2022/03/17 03:18:40;;;;;;;18.60;8.43;;;;;;;17.99;45.99;102171.72;5113490;27;20088;-73
2022/03/17 03:21:07;;;;;;;17.07;8.67;;;;;;;17.69;45.62;102168.72;5113116;27;20390;-73
2022/03/17 03:23:33;;;;;;;26.50;9.23;;;;;;;17.37;46.78;102186.91;5113965;27;20046;-73
2022/03/17 03:25:58;;;;;;;17.67;9.27;;;;;;;16.73;47.34;102196.66;5109253;28;20500;-74
2022/03/17 03:28:24;;;;;;;21.27;9.13;;;;;;;18.36;44.79;102186.84;5111110;28;20031;-73
2022/03/17 03:30:50;;;;;;;17.97;7.70;;;;;;;16.24;49.06;102208.75;5110229;28;20076;-74
2022/03/17 03:33:16;;;;;;;21.63;7.77;;;;;;;16.57;48.13;102222.41;5109406;28;20023;-72
2022/03/17 03:38:25;;;;;;;8.67;4.53;;;;;;;16.15;49.81;102224.69;5108872;28;20113;-73
2022/03/17 03:40:51;;;;;;;11.20;3.47;;;;;;;15.30;51.88;102243.88;5109838;28;20482;-72
2022/03/17 03:43:17;;;;;;;9.03;3.43;;;;;;;15.54;49.67;102242.81;5109934;28;20107;-74
2022/03/17 03:45:42;;;;;;;8.17;2.93;;;;;;;15.48;49.89;102258.66;5109455;28;20059;-73
2022/03/17 03:48:07;;;;;;;12.77;3.33;;;;;;;16.89;46.32;102250.19;5109196;28;20386;-72
2022/03/17 03:50:33;;;;;;;11.60;3.03;;;;;;;16.86;46.11;102258.13;5109802;28;20076;-73
2022/03/17 03:52:58;;;;;;;12.57;2.53;;;;;;;16.83;44.68;102261.66;5109341;28;20069;-73
2022/03/17 03:55:24;;;;;;;9.03;2.50;;;;;;;17.59;42.96;102284.34;5110613;28;20027;-74
2022/03/17 03:57:50;;;;;;;11.63;1.90;;;;;;;15.92;47.13;102284.69;5110344;28;20475;-72
2022/03/17 04:02:44;;;;;;;7.40;1.60;;;;;;;15.57;46.71;102290.22;5111632;28;20031;-73
2022/03/17 04:05:10;;;;;;;7.20;1.70;;;;;;;16.70;44.22;102297.91;5108627;28;20019;-73
2022/03/17 04:07:37;;;;;;;5.57;1.77;;;;;;;16.64;43.88;102298.00;5110884;28;20419;-73
2022/03/17 04:10:03;;;;;;;10.43;2.03;;;;;;;16.54;44.28;102301.63;5109586;28;20119;-72
2022/03/17 04:12:28;;;;;;;7.20;2.03;;;;;;;16.17;45.26;102307.28;5093103;28;20126;-73
2022/03/17 04:14:54;;;;;;;12.90;2.13;;;;;;;16.96;44.41;102323.13;5108795;28;20402;-73
2022/03/17 04:17:19;;;;;;;9.60;2.00;;;;;;;15.88;45.70;102332.16;5110734;28;20024;-72
2022/03/17 04:19:44;;;;;;;6.10;2.03;;;;;;;17.00;43.69;102327.50;5089027;28;20390;-73
2022/03/17 04:22:10;;;;;;;15.20;2.27;;;;;;;16.14;45.03;102333.72;5105614;28;20457;-72
2022/03/17 04:24:37;;;;;;;12.30;1.50;;;;;;;16.04;45.06;102330.28;5101992;27;20534;-73
2022/03/17 04:27:04;;;;;;;11.73;2.00;;;;;;;15.53;46.30;102349.09;5135191;27;20015;-75
2022/03/17 04:29:30;;;;;;;3.53;1.30;;;;;;;14.53;47.60;102371.44;5135189;27;20026;-73
2022/03/17 04:31:55;;;;;;;11.50;2.07;;;;;;;15.85;45.18;102355.94;5117297;27;20385;-72
2022/03/17 04:34:20;;;;;;;8.13;2.13;;;;;;;16.87;42.68;102357.53;5135023;27;20027;-72
2022/03/17 04:36:46;;;;;;;9.27;1.30;;;;;;;16.09;44.50;102379.47;5116318;27;20043;-75
2022/03/17 04:39:11;;;;;;;7.53;1.77;;;;;;;15.12;46.67;102392.34;5115960;27;20099;-72
2022/03/17 04:41:37;;;;;;;6.90;1.00;;;;;;;15.57;45.83;102390.38;5134765;27;20027;-72
2022/03/17 04:44:03;;;;;;;6.03;1.43;;;;;;;15.30;46.34;102397.53;5116514;27;20046;-72
2022/03/17 04:46:28;;;;;;;12.43;1.63;;;;;;;15.66;45.52;102400.84;5134925;27;20437;-72
2022/03/17 04:48:53;;;;;;;3.30;0.70;;;;;;;15.52;45.68;102410.59;5115717;27;20031;-73
2022/03/17 04:51:19;;;;;;;5.17;1.03;;;;;;;15.69;44.61;102416.66;5116606;27;20023;-72
2022/03/17 04:53:45;;;;;;;5.13;1.10;;;;;;;14.39;48.43;102427.56;5135390;27;20661;-73
2022/03/17 04:56:14;;;;;;;5.87;1.10;;;;;;;15.06;46.79;102422.22;5133776;27;20026;-73
2022/03/17 04:58:41;;;;;;;5.43;1.20;;;;;;;15.13;45.80;102428.34;5116593;27;20035;-73
2022/03/17 05:01:07;;;;;;;5.27;1.13;;;;;;;15.75;44.23;102437.69;5116233;27;20019;-72
2022/03/17 05:03:34;;;;;;;5.90;0.90;;;;;;;15.71;44.80;102441.22;5116087;27;20027;-73
2022/03/17 05:06:00;;;;;;;7.67;1.43;;;;;;;15.81;44.92;102457.03;5115358;27;20106;-72
2022/03/17 05:08:26;;;;;;;10.87;1.97;;;;;;;14.86;46.85;102465.25;5115470;27;20024;-72
2022/03/17 05:10:54;;;;;;;4.80;0.90;;;;;;;15.51;45.58;102464.16;5098968;27;20038;-72
2022/03/17 05:13:22;;;;;;;11.30;1.73;;;;;;;14.84;46.21;102471.44;5116531;27;20474;-73
2022/03/17 05:15:48;;;;;;;5.43;1.40;;;;;;;15.86;44.68;102489.53;5115146;27;20018;-73
2022/03/17 05:18:14;;;;;;;7.80;0.83;;;;;;;15.52;45.46;102492.28;5115477;27;20023;-73
2022/03/17 05:20:43;;;;;;;9.53;1.27;;;;;;;15.05;45.84;102515.25;5134890;27;20083;-73
2022/03/17 05:23:10;;;;;;;5.77;0.83;;;;;;;14.87;46.29;102518.81;5134373;27;20027;-72
2022/03/17 05:25:38;;;;;;;5.20;0.93;;;;;;;15.28;44.76;102520.47;5114930;27;20046;-73
2022/03/17 05:28:08;;;;;;;4.00;1.63;;;;;;;16.20;42.67;102528.88;5098878;27;20031;-72
2022/03/17 05:30:34;;;;;;;3.47;1.77;;;;;;;15.49;43.75;102529.19;5115939;27;20486;-72
2022/03/17 05:33:00;;;;;;;3.97;0.80;;;;;;;16.86;40.68;102535.41;5115259;27;20041;-73
2022/03/17 05:35:26;;;;;;;2.73;1.00;;;;;;;14.87;44.57;102553.03;5115341;27;20019;-72
2022/03/17 05:37:53;;;;;;;7.30;1.37;;;;;;;15.58;44.47;102550.25;5115172;27;20412;-73
2022/03/17 05:40:19;;;;;;;8.87;0.80;;;;;;;16.63;42.07;102554.94;5115542;27;20023;-72
2022/03/17 05:42:47;;;;;;;5.03;0.97;;;;;;;14.59;46.64;102574.94;5115513;27;20561;-73
2022/03/17 05:45:17;;;;;;;5.27;0.93;;;;;;;15.12;45.08;102569.66;5115139;27;20789;-72
2022/03/17 05:47:45;;;;;;;7.83;1.17;;;;;;;16.66;42.40;102575.16;5115532;27;20027;-73
2022/03/17 05:50:13;;;;;;;11.47;0.73;;;;;;;16.66;42.40;102580.44;5133556;27;20061;-72
2022/03/17 05:52:42;;;;;;;6.93;1.13;;;;;;;17.34;40.64;102586.00;5114829;27;20471;-72
2022/03/17 05:55:09;;;;;;;23.03;3.37;;;;;;;17.96;39.52;102593.25;5133649;27;20463;-73
2022/03/17 05:57:36;;;;;;;12.23;1.50;;;;;;;17.21;40.34;102593.19;5113961;27;20101;-72
2022/03/17 06:00:04;;;;;;;9.00;0.90;;;;;;;17.63;39.84;102600.69;5114525;27;20076;-73
2022/03/17 06:02:30;;;;;;;10.33;0.90;;;;;;;17.61;40.10;102610.38;5115325;27;20030;-72
2022/03/17 06:04:55;;;;;;;5.80;1.50;;;;;;;16.22;42.67;102620.28;5115467;27;20386;-73
2022/03/17 06:07:21;;;;;;;16.17;1.33;;;;;;;18.44;38.54;102611.97;5112571;27;21306;-72
2022/03/17 06:09:46;;;;;;;7.30;1.00;;;;;;;17.71;39.86;102617.34;5115366;27;20026;-72
2022/03/17 06:12:13;;;;;;;8.40;1.63;;;;;;;17.20;40.82;102619.63;5097486;27;20629;-73
2022/03/17 06:14:38;;;;;;;8.57;1.40;;;;;;;17.50;40.67;102636.06;5133169;27;20022;-73
2022/03/17 06:17:07;;;;;;;11.00;1.87;;;;;;;17.78;39.96;102641.94;5108404;28;20406;-73
2022/03/17 06:19:32;;;;;;;8.30;1.40;;;;;;;17.13;41.38;102646.09;5114015;27;20102;-72
2022/03/17 06:21:58;;;;;;;6.60;0.80;;;;;;;17.39;40.59;102652.94;5115025;27;20439;-73
2022/03/17 06:24:24;;;;;;;9.10;1.17;;;;;;;17.19;40.55;102649.59;5132713;27;20047;-72
2022/03/17 06:26:50;;;;;;;5.80;1.13;;;;;;;16.45;41.36;102654.47;5114875;27;20027;-73
2022/03/17 06:29:15;;;;;;;9.17;1.77;;;;;;;17.33;39.29;102658.25;5113260;27;20030;-73
2022/03/17 06:31:41;;;;;;;4.67;1.47;;;;;;;16.76;39.71;102671.88;5133397;27;20023;-72
2022/03/17 06:34:06;;;;;;;8.23;1.80;;;;;;;17.29;39.31;102677.69;5131166;27;20030;-72
2022/03/17 06:36:32;;;;;;;7.30;0.93;;;;;;;17.10;39.61;102692.81;5114330;27;20019;-72
2022/03/17 06:38:57;;;;;;;8.63;1.77;;;;;;;17.07;39.48;102683.13;5114105;27;20477;-72
2022/03/17 06:41:23;;;;;;;11.07;1.50;;;;;;;16.74;40.70;102697.44;5132122;27;20502;-72
2022/03/17 06:43:48;;;;;;;8.53;1.20;;;;;;;16.65;40.98;102695.75;5114084;27;20030;-72
2022/03/17 06:46:14;;;;;;;3.43;1.13;;;;;;;16.87;40.47;102699.13;5114145;27;20026;-72
2022/03/17 06:48:39;;;;;;;12.77;1.33;;;;;;;18.08;38.65;102712.16;5092205;28;20487;-71
2022/03/17 06:51:06;;;;;;;10.80;2.43;;;;;;;17.04;39.51;102714.88;5093501;28;20532;-72
2022/03/17 06:53:32;;;;;;;5.73;0.97;;;;;;;17.01;39.79;102716.63;5111714;27;20019;-72
2022/03/17 06:55:57;;;;;;;11.93;1.63;;;;;;;16.68;40.44;102727.41;5130192;27;20054;-72
2022/03/17 06:58:22;;;;;;;3.90;1.20;;;;;;;17.04;38.82;102741.28;5129992;27;20023;-72
2022/03/17 07:00:48;;;;;;;7.03;1.10;;;;;;;16.31;40.04;102755.69;5133196;27;20047;-73
2022/03/17 07:03:13;;;;;;;5.00;1.30;;;;;;;16.86;38.87;102749.31;5131235;27;20061;-72
2022/03/17 07:05:38;;;;;;;11.83;0.97;;;;;;;18.14;37.09;102743.81;5114497;27;20023;-72
2022/03/17 07:08:04;;;;;;;16.73;2.83;;;;;;;18.47;35.16;102744.31;5113550;27;20019;-72
2022/03/17 07:10:30;;;;;;;7.73;1.10;;;;;;;17.65;37.87;102744.31;5097060;27;20471;-72
2022/03/17 07:12:55;;;;;;;7.63;1.23;;;;;;;16.49;40.25;102773.25;5113574;27;20027;-72
2022/03/17 07:15:20;;;;;;;8.67;1.50;;;;;;;18.59;36.40;102768.91;5113741;27;20026;-72
2022/03/17 07:17:46;;;;;;;4.90;0.77;;;;;;;17.13;38.71;102786.16;5108800;27;20114;-74
2022/03/17 07:20:16;;;;;;;8.93;1.17;;;;;;;17.28;38.63;102781.63;5097518;27;20031;-72
2022/03/17 07:22:43;;;;;;;7.53;1.07;;;;;;;18.54;36.40;102781.31;5113245;27;20031;-74
2022/03/17 07:25:11;;;;;;;6.27;0.67;;;;;;;16.67;39.22;102785.50;5106930;28;20059;-72
2022/03/17 07:27:40;;;;;;;9.87;1.30;;;;;;;17.23;38.00;102789.59;5109572;28;20035;-72
2022/03/17 07:30:12;;;;;;;4.17;0.93;;;;;;;17.88;36.80;102799.63;5109787;28;20024;-72
2022/03/17 07:32:38;;;;;;;8.30;1.00;;;;;;;18.94;35.10;102799.34;5111086;28;20023;-73
2022/03/17 07:35:05;;;;;;;7.17;0.70;;;;;;;17.67;36.62;102816.59;5110893;28;20107;-72
2022/03/17 07:37:30;;;;;;;7.00;1.40;;;;;;;17.51;37.53;102817.59;5110970;28;20045;-72
2022/03/17 07:39:55;;;;;;;7.13;1.13;;;;;;;16.81;37.86;102825.03;5111639;28;20023;-72
2022/03/17 07:42:21;;;;;;;4.87;0.70;;;;;;;18.33;35.23;102823.03;5110417;28;20024;-72
2022/03/17 07:44:46;;;;;;;7.73;1.10;;;;;;;16.54;38.68;102834.78;5111201;28;20077;-72
2022/03/17 07:47:12;;;;;;;6.87;1.10;;;;;;;17.24;37.33;102832.75;5109897;28;20019;-72
2022/03/17 07:49:37;;;;;;;4.30;1.10;;;;;;;17.33;37.73;102834.47;5111740;28;20088;-72
2022/03/17 07:52:04;;;;;;;6.53;0.93;;;;;;;16.75;37.94;102847.94;5110957;28;20068;-72
2022/03/17 07:54:30;;;;;;;4.90;0.90;;;;;;;17.94;36.05;102841.06;5111465;28;20019;-72
2022/03/17 07:56:55;;;;;;;4.20;1.10;;;;;;;17.46;37.70;102852.88;5109974;28;20504;-72
2022/03/17 07:59:21;;;;;;;8.07;1.40;;;;;;;16.66;39.09;102855.88;5111065;28;20027;-72
2022/03/17 08:01:47;;;;;;;8.00;2.30;;;;;;;16.98;38.67;102881.34;5111583;28;20028;-72
2022/03/17 08:04:12;;;;;;;4.33;1.10;;;;;;;16.67;38.91;102878.75;5110943;28;20019;-72
2022/03/17 08:06:37;;;;;;;5.37;1.40;;;;;;;16.73;38.06;102885.78;5109447;28;20016;-72
2022/03/17 08:09:03;;;;;;;8.90;0.90;;;;;;;16.56;38.67;102892.00;5110209;28;20072;-72
2022/03/17 08:11:29;;;;;;;6.23;1.07;;;;;;;16.27;38.91;102905.25;5111853;28;20049;-72
2022/03/17 08:13:54;;;;;;;3.60;1.03;;;;;;;17.43;36.21;102892.56;5109401;28;20027;-72
2022/03/17 08:16:20;;;;;;;3.47;0.90;;;;;;;17.89;35.92;102895.75;5109997;28;20011;-72
2022/03/17 08:18:45;;;;;;;8.03;0.70;;;;;;;17.05;37.72;102912.13;5111448;28;20051;-72
2022/03/17 08:21:15;;;;;;;2.40;0.90;;;;;;;16.08;39.68;102915.78;5108798;28;20030;-72
2022/03/17 08:23:40;;;;;;;8.27;1.13;;;;;;;17.17;36.97;102926.16;5111243;28;20490;-72
2022/03/17 08:26:06;;;;;;;5.70;1.00;;;;;;;16.63;37.73;102930.69;5109273;28;20071;-72
2022/03/17 08:28:31;;;;;;;4.27;0.80;;;;;;;16.40;37.92;102932.50;5109657;28;20382;-72
2022/03/17 08:30:57;;;;;;;3.00;0.77;;;;;;;16.83;37.59;102948.28;5110950;28;20016;-71
2022/03/17 08:33:23;;;;;;;7.73;1.30;;;;;;;17.81;35.89;102935.50;5109725;28;20424;-72
2022/03/17 08:35:48;;;;;;;6.23;1.47;;;;;;;18.29;34.37;102943.06;5109700;28;20015;-72
2022/03/17 08:38:14;;;;;;;3.03;1.00;;;;;;;19.70;33.10;102947.63;5109354;28;20027;-72
2022/03/17 08:40:40;;;;;;;3.50;1.47;;;;;;;19.06;33.97;102957.31;5092989;28;20168;-72
2022/03/17 08:43:09;;;;;;;3.27;1.40;;;;;;;18.56;34.41;102963.13;5108829;28;20016;-72
2022/03/17 08:51:04;;;;;;;2.17;0.90;;;;;;;18.13;34.71;102980.28;5110985;28;20033;-73
2022/03/17 08:53:30;;;;;;;5.70;0.80;;;;;;;18.75;32.75;102985.00;5109904;28;20015;-72
2022/03/17 08:55:56;;;;;;;5.17;0.93;;;;;;;17.56;35.27;103008.81;5110315;28;20043;-72
2022/03/17 08:58:23;;;;;;;7.60;1.13;;;;;;;18.19;34.78;102994.31;5109404;28;20466;-72
2022/03/17 09:00:48;;;;;;;7.00;0.93;;;;;;;19.52;33.12;103003.56;5109582;28;20047;-72
2022/03/17 09:03:14;;;;;;;1.60;1.00;;;;;;;18.11;34.30;103013.78;5108608;28;20063;-72
2022/03/17 09:05:39;;;;;;;4.70;1.10;;;;;;;18.80;33.76;103012.31;5109682;28;20028;-72
2022/03/17 09:08:06;;;;;;;2.50;1.00;;;;;;;19.57;32.48;103012.34;5109033;28;20369;-72
2022/03/17 09:10:34;;;;;;;3.60;0.90;;;;;;;19.46;32.94;103013.34;5108862;28;20382;-72
2022/03/17 09:13:06;;;;;;;7.40;1.03;;;;;;;18.54;33.69;103017.84;5112625;28;20063;-72
2022/03/17 09:15:32;;;;;;;4.80;1.00;;;;;;;18.86;33.10;103021.09;5113318;28;20023;-72
2022/03/17 09:17:58;;;;;;;3.67;0.90;;;;;;;19.05;32.14;103025.34;5113434;28;20028;-72
2022/03/17 09:20:23;;;;;;;5.00;1.63;;;;;;;18.87;32.84;103021.06;5113083;28;20404;-73
2022/03/17 09:22:49;;;;;;;5.77;0.90;;;;;;;19.56;32.14;103029.16;5113076;28;20115;-72
2022/03/17 09:25:14;;;;;;;3.50;1.30;;;;;;;19.95;31.60;103032.22;5123200;27;20047;-71
2022/03/17 09:27:40;;;;;;;5.87;1.30;;;;;;;19.23;32.88;103039.28;5116359;27;20038;-72
2022/03/17 09:30:05;;;;;;;7.97;1.30;;;;;;;20.20;31.32;103034.50;5115292;27;20066;-74
2022/03/17 09:32:31;;;;;;;6.20;1.30;;;;;;;22.04;29.43;103039.81;5134635;27;20031;-72
2022/03/17 09:34:58;;;;;;;8.40;2.47;;;;;;;21.95;28.76;103045.34;5116137;27;20034;-71
2022/03/17 09:37:25;;;;;;;5.43;1.40;;;;;;;20.30;29.94;103057.31;5133816;27;20233;-72
2022/03/17 09:39:50;;;;;;;2.60;0.75;;;;;;;22.04;28.26;103053.13;5116228;27;20026;-71
2022/03/17 09:42:18;;;;;;;7.55;1.60;;;;;;;22.67;28.32;103050.72;5115533;27;20023;-71
2022/03/17 09:44:46;;;;;;;5.95;1.25;;;;;;;23.05;27.29;103056.78;5134076;27;20087;-72
2022/03/17 09:47:16;;;;;;;8.93;1.23;;;;;;;21.85;29.00;103066.84;5133782;27;20022;-71
2022/03/17 09:49:42;;;;;;;4.65;1.38;;;;;;;20.36;31.70;103069.63;5116114;27;20478;-72
2022/03/17 09:52:13;;;;;;;9.27;1.60;;;;;;;21.92;28.16;103088.00;5114848;27;20051;-72
2022/03/17 09:54:42;;;;;;;2.90;0.90;;;;;;;21.02;28.71;103089.81;5116093;27;20146;-72
2022/03/17 09:57:08;;;;;;;6.00;1.23;;;;;;;21.31;28.72;103091.03;5115317;27;20015;-72
2022/03/17 09:59:33;;;;;;;6.45;1.77;;;;;;;22.97;27.15;103080.13;5115449;27;20114;-72
2022/03/17 10:02:00;;;;;;;6.20;1.45;;;;;;;20.11;29.49;103105.41;5115649;27;20156;-73
2022/03/17 10:04:32;;;;;;;3.80;0.95;;;;;;;20.67;28.62;103108.06;5098743;27;20339;-72
2022/03/17 10:06:59;;;;;;;3.75;1.45;;;;;;;22.90;26.38;103113.22;5114740;27;20030;-72
2022/03/17 10:09:24;;;;;;;8.13;1.05;;;;;;;21.68;27.73;103111.59;5133675;27;20044;-72
2022/03/17 10:12:01;;;;;;;5.97;1.58;;;;;;;23.23;25.83;103097.25;5115868;27;20534;-72
2022/03/17 10:14:40;;;;;;;5.70;1.58;;;;;;;21.11;28.78;103113.53;5114842;27;20420;-72
2022/03/17 10:17:28;;;;;;;2.50;1.00;;;;;;;21.07;28.71;103122.47;5132976;27;20019;-71
2022/03/17 10:20:09;;;;;;;6.82;1.10;;;;;;;22.26;27.30;103129.84;5114428;27;20019;-72
2022/03/17 10:22:40;;;;;;;4.43;1.40;;;;;;;22.47;27.37;103133.81;5114643;28;20029;-72
2022/03/17 10:25:06;;;;;;;4.68;1.55;;;;;;;21.38;28.05;103129.91;5114504;27;20126;-73
2022/03/17 10:27:45;;;;;;;7.95;1.20;;;;;;;21.35;27.40;103148.56;5133156;27;20095;-73
2022/03/17 10:30:12;;;;;;;6.75;1.60;;;;;;;20.78;28.51;103145.13;5114819;27;20382;-72
2022/03/17 10:32:37;;;;;;;8.23;2.00;;;;;;;21.62;27.52;103154.28;5133591;27;20023;-72
2022/03/17 10:35:03;;;;;;;4.30;1.73;;;;;;;22.16;27.95;103159.34;5114111;27;20359;-72
2022/03/17 10:37:30;;;;;;;4.43;1.15;;;;;;;20.89;28.23;103157.38;5114676;27;20139;-72
2022/03/17 10:39:57;;;;;;;4.65;1.50;;;;;;;21.84;27.33;103171.59;5114641;27;20022;-72
2022/03/17 10:42:29;;;;;;;7.03;1.50;;;;;;;21.59;27.42;103170.31;5132405;27;20039;-72
2022/03/17 10:44:57;;;;;;;7.38;1.60;;;;;;;21.34;28.04;103176.94;5114368;27;20015;-72
2022/03/17 10:47:26;;;;;;;3.78;1.75;;;;;;;22.42;26.14;103187.25;5132175;27;20034;-71
2022/03/17 10:50:11;;;;;;;4.75;1.48;;;;;;;21.91;27.05;103188.28;5133030;27;20027;-72
2022/03/17 10:52:49;;;;;;;4.15;1.33;;;;;;;22.38;27.02;103196.22;5114569;27;20034;-72
2022/03/17 10:55:19;;;;;;;5.40;1.30;;;;;;;21.12;28.66;103192.41;5113240;27;20026;-72
2022/03/17 10:57:44;;;;;;;8.80;1.63;;;;;;;22.92;26.08;103199.38;5114615;27;20461;-72
2022/03/17 11:00:24;;;;;;;4.05;1.48;;;;;;;22.70;26.45;103195.44;5132527;27;20023;-71
2022/03/17 11:02:57;;;;;;;2.85;1.17;;;;;;;21.72;26.70;103192.22;5113946;27;20030;-71
2022/03/17 11:05:23;;;;;;;5.65;1.25;;;;;;;21.78;27.14;103198.31;5132247;27;20037;-72
2022/03/17 11:07:48;;;;;;;6.70;1.50;;;;;;;22.26;26.61;103204.44;5132941;27;20098;-71
2022/03/17 11:10:16;;;;;;;4.28;1.13;;;;;;;22.25;26.25;103208.00;5113060;27;20122;-72
2022/03/17 11:12:45;;;;;;;2.50;1.40;;;;;;;21.60;27.35;103209.34;5114206;27;20392;-71
2022/03/17 11:15:11;;;;;;;6.60;1.33;;;;;;;21.14;28.24;103203.91;5132258;27;20027;-72
2022/03/17 11:17:46;;;;;;;3.40;1.33;;;;;;;21.89;27.20;103205.22;5113355;27;20034;-72
2022/03/17 11:20:12;;;;;;;3.15;1.35;;;;;;;21.52;27.30;103205.00;5113997;27;20421;-72
2022/03/17 11:22:39;;;;;;;4.15;1.52;;;;;;;23.30;25.00;103195.75;5113443;27;20051;-72
2022/03/17 11:25:25;;;;;;;6.88;1.10;;;;;;;20.51;28.77;103213.72;5096643;27;20062;-72
2022/03/17 11:27:58;;;;;;;2.47;1.20;;;;;;;21.52;26.77;103213.00;5114136;27;20037;-73
2022/03/17 11:30:40;;;;;;;6.13;1.63;;;;;;;22.69;27.21;103208.81;5131698;27;20023;-72
2022/03/17 11:33:45;;;;;;;6.80;1.85;;;;;;;22.69;26.62;103216.81;5113661;27;20020;-72
2022/03/17 11:36:10;;;;;;;5.10;1.08;;;;;;;21.72;27.63;103214.41;5131908;27;20018;-72